createdAt,value
2023-07-03T00:00:11.604Z,8.55
2023-07-03T00:01:13.085Z,8.75
2023-07-03T00:02:14.633Z,8.65
2023-07-03T00:03:16.175Z,8.88
2023-07-03T00:04:17.693Z,9.18
2023-07-03T00:05:19.227Z,9.07
2023-07-03T00:06:20.679Z,8.82
2023-07-03T00:07:22.221Z,9.27
2023-07-03T00:08:23.866Z,8.63
2023-07-03T00:09:25.352Z,9.18
2023-07-03T00:10:26.834Z,9.10
2023-07-03T00:11:28.266Z,8.65
2023-07-03T00:12:29.767Z,8.18
2023-07-03T00:13:31.207Z,9.75
2023-07-03T00:14:32.675Z,9.55
2023-07-03T00:15:34.129Z,9.30
2023-07-03T00:16:35.613Z,9.45
2023-07-03T00:17:37.145Z,9.30
2023-07-03T00:18:38.616Z,9.35
2023-07-03T00:19:40.120Z,9.00
2023-07-03T00:20:41.635Z,8.60
2023-07-03T00:21:43.151Z,8.93
2023-07-03T00:22:44.662Z,9.02
2023-07-03T00:23:46.226Z,9.60
2023-07-03T00:24:47.715Z,9.57
2023-07-03T00:25:49.453Z,7.93
2023-07-03T00:26:51.214Z,8.93
2023-07-03T00:27:52.746Z,9.15
2023-07-03T00:28:54.230Z,9.23
2023-07-03T00:29:55.673Z,9.00
2023-07-03T00:30:57.222Z,9.38
2023-07-03T00:31:58.789Z,8.70
2023-07-03T00:33:00.439Z,9.10
2023-07-03T00:34:01.945Z,9.93
2023-07-03T00:35:03.370Z,9.73
2023-07-03T00:36:04.851Z,10.10
2023-07-03T00:37:06.318Z,10.15
2023-07-03T00:38:07.802Z,9.05
2023-07-03T00:39:09.286Z,9.38
2023-07-03T00:40:10.712Z,9.23
2023-07-03T00:41:12.188Z,9.27
2023-07-03T00:42:13.646Z,9.85
2023-07-03T00:43:15.159Z,9.20
2023-07-03T00:44:16.677Z,9.90
2023-07-03T00:45:18.176Z,8.88
2023-07-03T00:46:19.649Z,9.45
2023-07-03T00:47:21.146Z,10.25
2023-07-03T00:48:22.669Z,10.50
2023-07-03T00:49:24.146Z,9.48
2023-07-03T00:50:25.664Z,9.63
2023-07-03T00:51:27.196Z,9.60
2023-07-03T00:52:28.650Z,9.50
2023-07-03T00:53:30.142Z,10.13
2023-07-03T00:54:31.615Z,10.20
2023-07-03T00:55:33.094Z,9.60
2023-07-03T00:56:34.647Z,8.82
2023-07-03T00:57:36.118Z,9.70
2023-07-03T00:58:37.592Z,9.20
2023-07-03T00:59:39.063Z,10.02
2023-07-03T01:00:40.505Z,10.15
2023-07-03T01:01:42.019Z,10.18
2023-07-03T01:02:43.589Z,8.95
2023-07-03T01:03:45.096Z,10.00
2023-07-03T01:04:46.681Z,9.10
2023-07-03T01:05:48.359Z,9.27
2023-07-03T01:06:49.957Z,9.07
2023-07-03T01:07:51.447Z,9.07
2023-07-03T01:08:52.964Z,9.50
2023-07-03T01:09:54.424Z,9.20
2023-07-03T01:10:55.905Z,9.65
2023-07-03T01:11:57.372Z,9.20
2023-07-03T01:12:58.902Z,9.88
2023-07-03T01:14:00.409Z,9.68
2023-07-03T01:15:01.893Z,9.02
2023-07-03T01:16:03.442Z,9.88
2023-07-03T01:17:04.932Z,9.90
2023-07-03T01:18:06.405Z,10.38
2023-07-03T01:19:07.895Z,9.00
2023-07-03T01:20:09.348Z,9.50
2023-07-03T01:21:10.831Z,9.68
2023-07-03T01:22:12.284Z,10.07
2023-07-03T01:23:13.808Z,9.73
2023-07-03T01:24:15.308Z,9.40
2023-07-03T01:25:16.781Z,9.80
2023-07-03T01:26:18.253Z,10.07
2023-07-03T01:27:19.800Z,9.52
2023-07-03T01:28:21.338Z,9.60
2023-07-03T01:29:22.837Z,9.93
2023-07-03T01:30:24.320Z,10.02
2023-07-03T01:31:25.822Z,9.55
2023-07-03T01:32:27.330Z,9.98
2023-07-03T01:33:28.850Z,10.00
2023-07-03T01:34:30.338Z,9.90
2023-07-03T01:35:31.799Z,9.88
2023-07-03T01:36:33.268Z,9.80
2023-07-03T01:37:34.812Z,9.82
2023-07-03T01:38:36.318Z,9.88
2023-07-03T01:39:37.774Z,9.93
2023-07-03T01:40:39.233Z,9.32
2023-07-03T01:41:40.697Z,9.45
2023-07-03T01:42:42.218Z,8.73
2023-07-03T01:43:43.765Z,10.48
2023-07-03T01:44:45.243Z,9.10
2023-07-03T01:45:46.742Z,9.82
2023-07-03T01:46:48.222Z,9.45
2023-07-03T01:47:49.740Z,9.57
2023-07-03T01:48:51.237Z,9.07
2023-07-03T01:49:52.699Z,9.68
2023-07-03T01:50:54.194Z,9.30
2023-07-03T01:51:55.655Z,9.82
2023-07-03T01:52:57.115Z,9.38
2023-07-03T01:53:58.653Z,9.57
2023-07-03T01:55:00.116Z,9.05
2023-07-03T01:56:01.593Z,9.25
2023-07-03T01:57:03.059Z,10.23
2023-07-03T01:58:04.560Z,9.55
2023-07-03T01:59:06.079Z,9.60
2023-07-03T02:00:07.546Z,9.88
2023-07-03T02:01:09.130Z,9.32
2023-07-03T02:02:10.896Z,9.18
2023-07-03T02:03:12.469Z,9.40
2023-07-03T02:04:14.132Z,9.90
2023-07-03T02:05:15.643Z,10.02
2023-07-03T02:06:17.083Z,9.32
2023-07-03T02:07:18.570Z,9.85
2023-07-03T02:08:20.009Z,8.73
2023-07-03T02:09:21.493Z,9.95
2023-07-03T02:10:22.964Z,9.85
2023-07-03T02:11:24.435Z,9.00
2023-07-03T02:12:25.918Z,9.65
2023-07-03T02:13:27.362Z,9.63
2023-07-03T02:14:28.852Z,9.98
2023-07-03T02:15:30.343Z,10.57
2023-07-03T02:16:31.845Z,10.15
2023-07-03T02:17:33.453Z,9.77
2023-07-03T02:18:34.995Z,9.90
2023-07-03T02:19:36.590Z,10.00
2023-07-03T02:20:38.162Z,9.70
2023-07-03T02:21:39.719Z,9.40
2023-07-03T02:22:41.255Z,9.57
2023-07-03T02:23:42.820Z,10.68
2023-07-03T02:24:44.371Z,10.70
2023-07-03T02:25:45.824Z,9.93
2023-07-03T02:26:47.309Z,9.05
2023-07-03T02:27:48.838Z,9.10
2023-07-03T02:28:50.310Z,9.60
2023-07-03T02:29:51.817Z,9.70
2023-07-03T02:30:53.331Z,9.23
2023-07-03T02:31:54.806Z,9.27
2023-07-03T02:32:56.290Z,9.40
2023-07-03T02:33:57.786Z,8.50
2023-07-03T02:34:59.253Z,8.95
2023-07-03T02:36:00.728Z,8.80
2023-07-03T02:37:02.171Z,8.90
2023-07-03T02:38:03.618Z,9.80
2023-07-03T02:39:05.085Z,9.00
2023-07-03T02:40:06.535Z,10.02
2023-07-03T02:41:08.021Z,9.32
2023-07-03T02:42:09.511Z,10.13
2023-07-03T02:43:11.040Z,9.77
2023-07-03T02:44:12.520Z,9.60
2023-07-03T02:45:14.008Z,9.90
2023-07-03T02:46:15.469Z,9.07
2023-07-03T02:47:17.013Z,9.60
2023-07-03T02:48:18.513Z,9.57
2023-07-03T02:49:20.004Z,9.07
2023-07-03T02:50:21.503Z,9.40
2023-07-03T02:51:22.983Z,10.43
2023-07-03T02:52:24.659Z,9.25
2023-07-03T02:53:26.119Z,10.38
2023-07-03T02:54:27.571Z,9.60
2023-07-03T02:55:29.030Z,9.07
2023-07-03T02:56:30.470Z,10.13
2023-07-03T02:57:31.962Z,9.43
2023-07-03T02:58:33.431Z,9.63
2023-07-03T02:59:34.875Z,8.70
2023-07-03T03:00:36.394Z,9.63
2023-07-03T03:01:37.858Z,8.95
2023-07-03T03:02:39.435Z,9.65
2023-07-03T03:03:40.980Z,9.82
2023-07-03T03:04:42.551Z,9.80
2023-07-03T03:05:44.043Z,8.75
2023-07-03T03:06:45.521Z,9.32
2023-07-03T03:07:47.030Z,9.13
2023-07-03T03:08:48.468Z,9.23
2023-07-03T03:09:49.934Z,8.93
2023-07-03T03:10:51.385Z,8.75
2023-07-03T03:11:52.884Z,9.02
2023-07-03T03:12:54.361Z,9.18
2023-07-03T03:13:55.823Z,9.45
2023-07-03T03:14:57.258Z,9.70
2023-07-03T03:15:58.715Z,8.77
2023-07-03T03:17:00.263Z,9.88
2023-07-03T03:18:01.863Z,9.30
2023-07-03T03:19:03.367Z,10.18
2023-07-03T03:20:04.812Z,10.07
2023-07-03T03:21:06.289Z,8.73
2023-07-03T03:22:07.779Z,9.70
2023-07-03T03:23:09.276Z,9.88
2023-07-03T03:24:10.786Z,8.95
2023-07-03T03:25:12.223Z,9.73
2023-07-03T03:26:13.713Z,9.48
2023-07-03T03:27:17.141Z,8.80
2023-07-03T03:28:18.793Z,9.10
2023-07-03T03:29:20.248Z,9.52
2023-07-03T03:30:21.706Z,9.13
2023-07-03T03:31:23.278Z,9.90
2023-07-03T03:32:24.801Z,9.55
2023-07-03T03:33:26.309Z,8.43
2023-07-03T03:34:27.747Z,9.05
2023-07-03T03:35:29.242Z,8.73
2023-07-03T03:36:30.700Z,9.25
2023-07-03T03:37:32.148Z,9.18
2023-07-03T03:38:33.584Z,9.30
2023-07-03T03:39:35.102Z,8.95
2023-07-03T03:40:36.731Z,8.70
2023-07-03T03:41:38.246Z,9.10
2023-07-03T03:42:39.742Z,9.35
2023-07-03T03:43:41.218Z,9.38
2023-07-03T03:44:42.665Z,8.02
2023-07-03T03:45:44.178Z,9.00
2023-07-03T03:46:45.659Z,9.18
2023-07-03T03:47:47.175Z,9.00
2023-07-03T03:48:48.870Z,8.73
2023-07-03T03:49:50.400Z,9.10
2023-07-03T03:50:51.902Z,8.55
2023-07-03T03:51:53.372Z,8.68
2023-07-03T03:52:54.886Z,8.35
2023-07-03T03:53:56.323Z,8.57
2023-07-03T03:54:57.762Z,8.23
2023-07-03T03:55:59.228Z,8.35
2023-07-03T03:57:00.676Z,8.57
2023-07-03T03:58:02.155Z,9.10
2023-07-03T03:59:03.610Z,8.82
2023-07-03T04:00:05.075Z,9.30
2023-07-03T04:01:06.619Z,8.77
2023-07-03T04:02:08.231Z,9.40
2023-07-03T04:03:09.743Z,8.77
2023-07-03T04:04:11.251Z,8.98
2023-07-03T04:05:13.054Z,8.82
2023-07-03T04:06:14.771Z,8.68
2023-07-03T04:07:16.227Z,8.85
2023-07-03T04:08:17.691Z,8.95
2023-07-03T04:09:19.163Z,8.18
2023-07-03T04:10:20.628Z,9.32
2023-07-03T04:11:22.110Z,8.27
2023-07-03T04:12:23.667Z,9.65
2023-07-03T04:13:25.143Z,8.63
2023-07-03T04:14:26.624Z,9.38
2023-07-03T04:15:28.092Z,9.10
2023-07-03T04:16:29.590Z,9.48
2023-07-03T04:17:31.097Z,9.38
2023-07-03T04:18:32.595Z,10.65
2023-07-03T04:19:34.082Z,8.98
2023-07-03T04:20:35.539Z,8.40
2023-07-03T04:21:37.007Z,9.45
2023-07-03T04:22:38.441Z,8.48
2023-07-03T04:23:39.922Z,8.63
2023-07-03T04:24:41.390Z,8.57
2023-07-03T04:25:42.865Z,8.95
2023-07-03T04:26:44.359Z,9.05
2023-07-03T04:27:45.828Z,9.40
2023-07-03T04:28:47.297Z,8.93
2023-07-03T04:29:48.758Z,8.48
2023-07-03T04:30:50.245Z,8.75
2023-07-03T04:31:51.784Z,7.95
2023-07-03T04:32:53.380Z,8.30
2023-07-03T04:33:54.868Z,8.63
2023-07-03T04:34:56.328Z,8.15
2023-07-03T04:35:57.817Z,7.93
2023-07-03T04:36:59.286Z,8.65
2023-07-03T04:38:00.743Z,7.90
2023-07-03T04:39:02.250Z,8.07
2023-07-03T04:40:03.719Z,8.57
2023-07-03T04:41:05.186Z,8.57
2023-07-03T04:42:06.666Z,8.73
2023-07-03T04:43:08.139Z,8.60
2023-07-03T04:44:09.604Z,8.07
2023-07-03T04:45:11.054Z,8.38
2023-07-03T04:46:12.590Z,10.13
2023-07-03T04:47:14.181Z,9.25
2023-07-03T04:48:15.652Z,8.35
2023-07-03T04:49:17.144Z,8.68
2023-07-03T04:50:18.636Z,9.38
2023-07-03T04:51:20.100Z,8.82
2023-07-03T04:52:21.602Z,8.77
2023-07-03T04:53:23.179Z,8.55
2023-07-03T04:54:24.701Z,8.95
2023-07-03T04:55:26.164Z,8.63
2023-07-03T04:56:27.667Z,8.80
2023-07-03T04:57:29.153Z,8.05
2023-07-03T04:58:30.634Z,9.10
2023-07-03T04:59:32.109Z,8.27
2023-07-03T05:00:33.594Z,9.57
2023-07-03T05:01:35.128Z,9.27
2023-07-03T05:02:36.690Z,9.13
2023-07-03T05:03:38.209Z,8.82
2023-07-03T05:04:39.775Z,8.57
2023-07-03T05:05:41.282Z,8.70
2023-07-03T05:06:42.754Z,8.80
2023-07-03T05:07:44.270Z,9.23
2023-07-03T05:08:45.931Z,7.72
2023-07-03T05:09:47.376Z,8.27
2023-07-03T05:10:48.845Z,9.30
2023-07-03T05:11:50.292Z,9.20
2023-07-03T05:12:52.112Z,9.88
2023-07-03T05:13:53.595Z,9.10
2023-07-03T05:14:55.037Z,9.43
2023-07-03T05:15:56.552Z,8.40
2023-07-03T05:16:58.064Z,8.43
2023-07-03T05:17:59.721Z,8.48
2023-07-03T05:19:01.311Z,8.48
2023-07-03T05:20:02.796Z,8.82
2023-07-03T05:21:04.393Z,8.57
2023-07-03T05:22:06.019Z,8.77
2023-07-03T05:23:07.580Z,9.07
2023-07-03T05:24:09.100Z,8.38
2023-07-03T05:25:10.569Z,8.35
2023-07-03T05:26:12.051Z,8.57
2023-07-03T05:27:13.541Z,8.27
2023-07-03T05:28:15.080Z,8.68
2023-07-03T05:29:16.597Z,8.73
2023-07-03T05:30:18.168Z,8.02
2023-07-03T05:31:19.777Z,8.48
2023-07-03T05:32:21.344Z,8.85
2023-07-03T05:33:22.860Z,8.10
2023-07-03T05:34:24.354Z,9.15
2023-07-03T05:35:25.830Z,7.88
2023-07-03T05:36:27.280Z,8.70
2023-07-03T05:37:28.838Z,8.80
2023-07-03T05:38:30.319Z,8.35
2023-07-03T05:39:32.749Z,8.85
2023-07-03T05:40:34.363Z,8.50
2023-07-03T05:41:35.831Z,8.30
2023-07-03T05:42:37.307Z,8.57
2023-07-03T05:43:38.799Z,8.13
2023-07-03T05:44:40.291Z,8.35
2023-07-03T05:45:41.753Z,8.43
2023-07-03T05:46:43.281Z,8.23
2023-07-03T05:47:44.794Z,8.07
2023-07-03T05:48:46.312Z,7.65
2023-07-03T05:49:47.827Z,7.63
2023-07-03T05:50:49.276Z,7.90
2023-07-03T05:51:50.749Z,8.63
2023-07-03T05:52:52.221Z,8.38
2023-07-03T05:53:53.684Z,8.25
2023-07-03T05:54:55.198Z,8.90
2023-07-03T05:55:56.689Z,9.02
2023-07-03T05:56:59.369Z,8.15
2023-07-03T05:58:00.845Z,7.78
2023-07-03T05:59:02.316Z,9.02
2023-07-03T06:00:03.821Z,9.50
2023-07-03T06:01:05.319Z,8.95
2023-07-03T06:02:06.822Z,8.02
2023-07-03T06:03:08.345Z,8.75
2023-07-03T06:04:09.931Z,9.15
2023-07-03T06:05:11.538Z,8.77
2023-07-03T06:06:13.011Z,10.88
2023-07-03T06:07:14.499Z,10.50
2023-07-03T06:08:15.971Z,9.68
2023-07-03T06:09:17.472Z,8.73
2023-07-03T06:10:18.940Z,8.85
2023-07-03T06:11:20.415Z,9.05
2023-07-03T06:12:21.894Z,9.68
2023-07-03T06:13:23.441Z,10.45
2023-07-03T06:14:24.927Z,8.60
2023-07-03T06:15:26.460Z,9.27
2023-07-03T06:16:27.966Z,9.45
2023-07-03T06:17:29.514Z,9.13
2023-07-03T06:18:31.024Z,9.07
2023-07-03T06:19:32.476Z,8.82
2023-07-03T06:20:33.925Z,8.73
2023-07-03T06:21:35.398Z,8.73
2023-07-03T06:22:37.026Z,8.82
2023-07-03T06:23:43.660Z,8.95
2023-07-03T06:24:45.126Z,8.80
2023-07-03T06:25:46.614Z,8.75
2023-07-03T06:26:48.140Z,8.85
2023-07-03T06:27:49.622Z,8.90
2023-07-03T06:28:51.106Z,9.45
2023-07-03T06:29:52.593Z,8.10
2023-07-03T06:30:55.227Z,8.68
2023-07-03T06:31:56.964Z,8.50
2023-07-03T06:32:58.462Z,8.27
2023-07-03T06:33:59.990Z,9.43
2023-07-03T06:35:05.121Z,8.57
2023-07-03T06:36:08.069Z,8.43
2023-07-03T06:37:09.545Z,8.68
2023-07-03T06:38:11.010Z,8.63
2023-07-03T06:39:12.472Z,8.27
2023-07-03T06:40:13.924Z,8.70
2023-07-03T06:41:15.386Z,8.90
2023-07-03T06:42:16.875Z,8.65
2023-07-03T06:43:18.361Z,9.05
2023-07-03T06:44:19.821Z,9.20
2023-07-03T06:45:21.285Z,8.88
2023-07-03T06:46:22.766Z,9.13
2023-07-03T06:47:24.325Z,8.95
2023-07-03T06:48:25.878Z,8.25
2023-07-03T06:49:27.328Z,8.32
2023-07-03T06:50:28.857Z,8.57
2023-07-03T06:51:30.342Z,8.32
2023-07-03T06:52:31.854Z,9.05
2023-07-03T06:53:33.332Z,7.93
2023-07-03T06:54:34.801Z,8.25
2023-07-03T06:55:36.256Z,8.20
2023-07-03T06:56:37.821Z,9.10
2023-07-03T06:57:39.300Z,8.23
2023-07-03T06:58:40.774Z,8.60
2023-07-03T06:59:42.237Z,8.57
2023-07-03T07:00:43.708Z,8.48
2023-07-03T07:01:45.217Z,8.20
2023-07-03T07:02:46.812Z,8.18
2023-07-03T07:03:48.381Z,7.43
2023-07-03T07:04:49.989Z,8.10
2023-07-03T07:05:51.865Z,8.27
2023-07-03T07:06:53.762Z,7.70
2023-07-03T07:07:55.228Z,8.50
2023-07-03T07:08:56.717Z,7.95
2023-07-03T07:09:58.170Z,7.75
2023-07-03T07:10:59.643Z,7.55
2023-07-03T07:12:01.161Z,8.25
2023-07-03T07:13:02.629Z,7.75
2023-07-03T07:14:04.108Z,8.48
2023-07-03T07:15:05.577Z,8.32
2023-07-03T07:16:07.069Z,7.10
2023-07-03T07:17:08.592Z,7.65
2023-07-03T07:18:10.162Z,7.80
2023-07-03T07:19:11.773Z,8.27
2023-07-03T07:20:13.246Z,7.75
2023-07-03T07:21:14.700Z,7.80
2023-07-03T07:22:16.168Z,7.80
2023-07-03T07:23:17.625Z,7.90
2023-07-03T07:24:19.136Z,8.65
2023-07-03T07:25:20.626Z,8.05
2023-07-03T07:26:22.113Z,7.93
2023-07-03T07:27:23.583Z,7.10
2023-07-03T07:28:25.050Z,7.70
2023-07-03T07:29:26.601Z,8.13
2023-07-03T07:30:28.272Z,7.40
2023-07-03T07:31:29.854Z,8.57
2023-07-03T07:32:31.440Z,8.13
2023-07-03T07:33:32.952Z,8.05
2023-07-03T07:34:34.434Z,7.65
2023-07-03T07:35:35.870Z,8.40
2023-07-03T07:36:37.320Z,8.10
2023-07-03T07:37:38.816Z,7.90
2023-07-03T07:38:40.278Z,9.07
2023-07-03T07:39:41.740Z,7.28
2023-07-03T07:40:43.332Z,7.90
2023-07-03T07:41:44.799Z,7.82
2023-07-03T07:42:46.296Z,7.63
2023-07-03T07:43:47.773Z,8.63
2023-07-03T07:44:49.242Z,7.95
2023-07-03T07:45:50.856Z,7.65
2023-07-03T07:46:52.489Z,7.95
2023-07-03T07:47:54.158Z,8.10
2023-07-03T07:48:55.785Z,7.60
2023-07-03T07:49:57.558Z,7.88
2023-07-03T07:50:59.099Z,7.78
2023-07-03T07:52:00.553Z,7.88
2023-07-03T07:53:02.008Z,8.48
2023-07-03T07:54:03.479Z,7.50
2023-07-03T07:55:04.968Z,7.97
2023-07-03T07:56:06.486Z,7.63
2023-07-03T07:57:07.968Z,8.80
2023-07-03T07:58:09.448Z,7.78
2023-07-03T07:59:10.915Z,7.90
2023-07-03T08:00:12.402Z,7.55
2023-07-03T08:01:13.962Z,8.10
2023-07-03T08:02:15.531Z,7.68
2023-07-03T08:03:17.004Z,7.57
2023-07-03T08:04:18.597Z,8.07
2023-07-03T08:05:20.139Z,7.22
2023-07-03T08:06:21.693Z,8.27
2023-07-03T08:07:23.203Z,7.22
2023-07-03T08:08:24.661Z,8.15
2023-07-03T08:09:26.108Z,8.13
2023-07-03T08:10:27.570Z,7.45
2023-07-03T08:11:29.078Z,7.10
2023-07-03T08:12:30.563Z,8.27
2023-07-03T08:13:32.029Z,7.15
2023-07-03T08:14:33.496Z,7.10
2023-07-03T08:15:34.952Z,7.50
2023-07-03T08:16:36.481Z,7.35
2023-07-03T08:17:38.021Z,7.40
2023-07-03T08:18:39.524Z,7.15
2023-07-03T08:19:41.003Z,7.00
2023-07-03T08:20:42.470Z,7.32
2023-07-03T08:21:43.976Z,8.13
2023-07-03T08:22:45.455Z,7.22
2023-07-03T08:23:46.915Z,7.30
2023-07-03T08:24:48.414Z,7.25
2023-07-03T08:25:50.222Z,6.85
2023-07-03T08:26:52.441Z,6.70
2023-07-03T08:27:53.921Z,7.15
2023-07-03T08:28:55.666Z,6.63
2023-07-03T08:29:57.301Z,7.00
2023-07-03T08:30:58.939Z,7.07
2023-07-03T08:32:00.547Z,6.30
2023-07-03T08:33:02.073Z,7.13
2023-07-03T08:34:04.118Z,6.90
2023-07-03T08:37:14.481Z,6.45
2023-07-03T08:38:15.953Z,6.80
2023-07-03T08:39:17.423Z,7.55
2023-07-03T08:40:18.890Z,7.05
2023-07-03T08:41:20.335Z,6.03
2023-07-03T08:42:21.830Z,6.65
2023-07-03T08:43:23.360Z,6.63
2023-07-03T08:44:24.893Z,6.75
2023-07-03T08:45:26.387Z,6.70
2023-07-03T08:46:27.930Z,6.50
2023-07-03T08:47:29.536Z,6.25
2023-07-03T08:48:31.035Z,6.38
2023-07-03T08:49:32.517Z,6.88
2023-07-03T08:50:37.502Z,7.13
2023-07-03T08:51:39.377Z,6.15
2023-07-03T08:52:40.840Z,5.68
2023-07-03T08:53:42.289Z,6.43
2023-07-03T08:54:43.782Z,6.80
2023-07-03T08:55:45.283Z,5.75
2023-07-03T08:56:46.799Z,5.53
2023-07-03T08:57:48.267Z,6.18
2023-07-03T08:58:49.762Z,5.38
2023-07-03T08:59:51.225Z,6.32
2023-07-03T09:00:53.072Z,6.28
2023-07-03T09:01:55.079Z,5.93
2023-07-03T09:02:56.761Z,6.28
2023-07-03T09:03:58.465Z,5.95
2023-07-03T09:05:00.111Z,6.47
2023-07-03T09:06:01.751Z,5.90
2023-07-03T09:07:03.249Z,6.43
2023-07-03T09:08:04.714Z,7.07
2023-07-03T09:09:06.201Z,6.50
2023-07-03T09:10:07.653Z,7.22
2023-07-03T09:11:09.105Z,6.13
2023-07-03T09:12:10.591Z,6.78
2023-07-03T09:13:12.052Z,5.75
2023-07-03T09:14:13.578Z,5.57
2023-07-03T09:15:15.092Z,5.60
2023-07-03T09:16:16.622Z,6.07
2023-07-03T09:17:18.490Z,6.43
2023-07-03T09:18:20.016Z,6.55
2023-07-03T09:19:21.527Z,7.25
2023-07-03T09:20:23.045Z,6.25
2023-07-03T09:21:24.576Z,7.15
2023-07-03T09:22:26.044Z,5.65
2023-07-03T09:23:27.519Z,6.80
2023-07-03T09:24:29.806Z,7.20
2023-07-03T09:25:31.306Z,6.78
2023-07-03T09:26:32.807Z,6.72
2023-07-03T09:27:34.931Z,7.00
2023-07-03T09:28:36.518Z,6.93
2023-07-03T09:29:37.988Z,7.15
2023-07-03T09:30:40.093Z,7.00
2023-07-03T09:31:41.756Z,6.78
2023-07-03T09:32:43.362Z,7.00
2023-07-03T09:33:44.851Z,7.30
2023-07-03T09:34:46.304Z,7.35
2023-07-03T09:35:47.826Z,8.05
2023-07-03T09:36:49.273Z,7.05
2023-07-03T09:37:50.770Z,6.97
2023-07-03T09:38:52.246Z,6.72
2023-07-03T09:39:53.749Z,6.70
2023-07-03T09:40:56.968Z,7.18
2023-07-03T09:42:00.135Z,6.45
2023-07-03T09:43:01.677Z,6.93
2023-07-03T09:44:03.186Z,6.57
2023-07-03T09:45:05.208Z,5.95
2023-07-03T09:46:06.981Z,6.68
2023-07-03T09:47:08.519Z,6.78
2023-07-03T09:48:10.191Z,7.15
2023-07-03T09:49:12.698Z,6.90
2023-07-03T09:50:16.358Z,7.45
2023-07-03T09:51:18.200Z,6.90
2023-07-03T09:52:19.697Z,6.65
2023-07-03T09:53:21.251Z,6.20
2023-07-03T09:54:22.765Z,6.25
2023-07-03T09:55:24.245Z,6.57
2023-07-03T09:56:25.753Z,6.40
2023-07-03T09:57:27.199Z,6.75
2023-07-03T09:58:28.647Z,6.20
2023-07-03T09:59:30.113Z,6.50
2023-07-03T10:00:31.711Z,7.07
2023-07-03T10:03:42.136Z,7.38
2023-07-03T10:06:52.561Z,7.15
2023-07-03T10:07:54.320Z,7.47
2023-07-03T10:12:09.086Z,6.30
2023-07-03T10:13:10.686Z,6.95
2023-07-03T10:14:12.169Z,7.35
2023-07-03T10:15:13.633Z,6.40
2023-07-03T10:16:15.109Z,6.72
2023-07-03T10:17:16.686Z,6.82
2023-07-03T10:18:18.394Z,7.45
2023-07-03T10:19:19.895Z,6.60
2023-07-03T10:20:22.800Z,6.20
2023-07-03T10:21:24.705Z,6.20
2023-07-03T10:22:26.249Z,6.10
2023-07-03T10:23:27.737Z,5.93
2023-07-03T10:24:29.202Z,5.82
2023-07-03T10:25:30.652Z,5.90
2023-07-03T10:26:32.107Z,6.50
2023-07-03T10:27:33.645Z,6.20
2023-07-03T10:28:35.121Z,6.63
2023-07-03T10:29:36.604Z,6.55
2023-07-03T10:30:38.053Z,6.35
2023-07-03T10:31:39.661Z,6.05
2023-07-03T10:32:41.252Z,5.18
2023-07-03T10:33:42.743Z,5.70
2023-07-03T10:34:44.229Z,6.05
2023-07-03T10:35:45.744Z,5.85
2023-07-03T10:36:47.232Z,6.05
2023-07-03T10:37:48.820Z,5.68
2023-07-03T10:38:50.473Z,5.25
2023-07-03T10:39:51.974Z,4.72
2023-07-03T10:40:53.664Z,5.15
2023-07-03T10:41:55.411Z,4.63
2023-07-03T10:42:56.927Z,5.22
2023-07-03T10:43:58.420Z,5.43
2023-07-03T10:44:59.989Z,5.40
2023-07-03T10:46:01.561Z,5.35
2023-07-03T10:47:03.050Z,5.00
2023-07-03T10:48:04.570Z,4.38
2023-07-03T10:49:06.111Z,5.65
2023-07-03T10:50:07.627Z,4.85
2023-07-03T10:51:09.076Z,5.20
2023-07-03T10:52:10.553Z,5.32
2023-07-03T10:53:12.040Z,5.40
2023-07-03T10:54:13.602Z,5.40
2023-07-03T10:55:15.080Z,4.65
2023-07-03T10:56:16.561Z,5.32
2023-07-03T10:57:18.082Z,5.53
2023-07-03T10:58:19.676Z,4.93
2023-07-03T10:59:21.145Z,4.55
2023-07-03T11:00:22.666Z,5.90
2023-07-03T11:01:24.157Z,5.00
2023-07-03T11:02:25.683Z,4.90
2023-07-03T11:03:27.267Z,5.03
2023-07-03T11:04:28.776Z,5.20
2023-07-03T11:05:30.255Z,5.03
2023-07-03T11:06:31.735Z,5.95
2023-07-03T11:07:33.176Z,5.35
2023-07-03T11:08:34.682Z,4.97
2023-07-03T11:09:36.148Z,4.63
2023-07-03T11:10:37.706Z,4.57
2023-07-03T11:11:39.159Z,4.30
2023-07-03T11:12:40.638Z,4.95
2023-07-03T11:13:42.171Z,4.65
2023-07-03T11:14:43.652Z,4.55
2023-07-03T11:15:45.248Z,4.60
2023-07-03T11:16:46.830Z,4.75
2023-07-03T11:19:57.038Z,3.97
2023-07-03T11:23:09.430Z,4.15
2023-07-03T11:24:12.971Z,3.72
2023-07-03T11:25:14.468Z,4.53
2023-07-03T11:28:26.880Z,4.30
2023-07-03T11:29:28.706Z,3.65
2023-07-03T11:30:30.220Z,4.10
2023-07-03T11:31:31.791Z,4.57
2023-07-03T11:32:33.375Z,4.10
2023-07-03T11:36:51.036Z,4.65
2023-07-03T11:40:07.333Z,4.20
2023-07-03T11:43:34.721Z,3.95
2023-07-03T11:44:36.326Z,4.15
2023-07-03T11:45:37.790Z,3.85
2023-07-03T11:46:39.537Z,4.53
2023-07-03T11:47:41.175Z,4.05
2023-07-03T11:48:44.739Z,3.90
2023-07-03T11:49:46.212Z,4.03
2023-07-03T11:50:47.796Z,4.00
2023-07-03T11:51:49.275Z,4.20
2023-07-03T11:52:51.027Z,4.00
2023-07-03T11:53:52.497Z,3.90
2023-07-03T11:54:54.535Z,4.03
2023-07-03T11:55:56.021Z,4.00
2023-07-03T11:56:57.474Z,4.03
2023-07-03T11:58:14.438Z,4.00
2023-07-03T11:59:20.413Z,4.32
2023-07-03T12:00:21.950Z,4.22
2023-07-03T12:01:23.475Z,4.70
2023-07-03T12:02:25.048Z,4.90
2023-07-03T12:03:26.583Z,4.88
2023-07-03T12:04:28.219Z,4.68
2023-07-03T12:05:29.730Z,4.55
2023-07-03T12:06:31.192Z,4.47
2023-07-03T12:07:32.656Z,4.30
2023-07-03T12:08:34.148Z,4.60
2023-07-03T12:09:35.647Z,4.63
2023-07-03T12:10:37.137Z,4.38
2023-07-03T12:11:38.609Z,4.25
2023-07-03T12:12:40.128Z,4.50
2023-07-03T12:13:41.669Z,4.60
2023-07-03T12:14:43.290Z,4.28
2023-07-03T12:15:44.791Z,5.57
2023-07-03T12:16:46.312Z,4.45
2023-07-03T12:17:47.884Z,4.75
2023-07-03T12:18:49.400Z,4.07
2023-07-03T12:19:50.895Z,4.57
2023-07-03T12:20:52.441Z,4.40
2023-07-03T12:21:53.877Z,3.72
2023-07-03T12:22:55.348Z,4.00
2023-07-03T12:23:56.835Z,4.68
2023-07-03T12:24:58.347Z,4.88
2023-07-03T12:25:59.823Z,5.05
2023-07-03T12:27:01.294Z,4.40
2023-07-03T12:28:02.779Z,4.35
2023-07-03T12:29:04.270Z,4.40
2023-07-03T12:30:05.753Z,4.70
2023-07-03T12:31:07.298Z,4.75
2023-07-03T12:32:08.871Z,5.15
2023-07-03T12:33:10.456Z,4.80
2023-07-03T12:34:11.946Z,4.85
2023-07-03T12:35:13.411Z,5.00
2023-07-03T12:36:14.953Z,4.55
2023-07-03T12:37:16.420Z,4.75
2023-07-03T12:38:17.913Z,5.00
2023-07-03T12:39:19.361Z,4.75
2023-07-03T12:40:20.823Z,4.80
2023-07-03T12:41:22.327Z,5.30
2023-07-03T12:42:23.823Z,4.47
2023-07-03T12:43:25.268Z,6.07
2023-07-03T12:44:26.816Z,5.18
2023-07-03T12:45:28.264Z,4.32
2023-07-03T12:46:29.769Z,5.45
2023-07-03T12:47:31.335Z,5.88
2023-07-03T12:48:32.877Z,4.78
2023-07-03T12:49:34.373Z,4.82
2023-07-03T12:50:35.824Z,4.53
2023-07-03T12:51:37.309Z,4.57
2023-07-03T12:52:38.812Z,4.65
2023-07-03T12:53:40.264Z,4.50
2023-07-03T12:54:41.749Z,4.80
2023-07-03T12:55:43.216Z,4.85
2023-07-03T12:56:44.704Z,5.13
2023-07-03T12:57:46.195Z,5.00
2023-07-03T12:58:47.667Z,5.20
2023-07-03T12:59:49.184Z,5.15
2023-07-03T13:00:50.665Z,4.90
2023-07-03T13:01:52.162Z,4.70
2023-07-03T13:02:53.686Z,4.45
2023-07-03T13:03:55.184Z,4.60
2023-07-03T13:04:56.734Z,5.82
2023-07-03T13:05:58.356Z,5.22
2023-07-03T13:06:59.939Z,4.95
2023-07-03T13:08:01.499Z,5.10
2023-07-03T13:09:03.002Z,4.90
2023-07-03T13:10:04.523Z,4.63
2023-07-03T13:11:06.020Z,4.45
2023-07-03T13:12:07.480Z,5.40
2023-07-03T13:13:08.951Z,4.50
2023-07-03T13:14:10.433Z,4.75
2023-07-03T13:15:11.903Z,5.38
2023-07-03T13:16:13.450Z,5.70
2023-07-03T13:17:14.917Z,4.53
2023-07-03T13:18:16.402Z,4.97
2023-07-03T13:19:17.890Z,5.03
2023-07-03T13:20:19.356Z,4.90
2023-07-03T13:21:20.871Z,4.28
2023-07-03T13:22:22.319Z,4.85
2023-07-03T13:23:24.014Z,5.13
2023-07-03T13:24:25.500Z,5.28
2023-07-03T13:25:26.969Z,4.80
2023-07-03T13:26:28.473Z,4.90
2023-07-03T13:27:29.963Z,5.05
2023-07-03T13:28:31.426Z,4.70
2023-07-03T13:29:33.484Z,4.40
2023-07-03T13:30:35.061Z,7.28
2023-07-03T13:31:50.812Z,5.85
2023-07-03T13:32:53.914Z,5.47
2023-07-03T13:33:55.501Z,5.03
2023-07-03T13:34:57.082Z,4.70
2023-07-03T13:35:58.522Z,5.55
2023-07-03T13:37:00.109Z,5.40
2023-07-03T13:38:01.615Z,4.95
2023-07-03T13:39:03.094Z,5.10
2023-07-03T13:40:04.598Z,5.63
2023-07-03T13:41:06.079Z,5.70
2023-07-03T13:42:07.549Z,5.55
2023-07-03T13:43:09.018Z,5.70
2023-07-03T13:44:10.506Z,6.10
2023-07-03T13:45:12.005Z,6.07
2023-07-03T13:46:13.554Z,5.13
2023-07-03T13:47:15.036Z,4.97
2023-07-03T13:48:16.515Z,4.57
2023-07-03T13:49:18.094Z,5.10
2023-07-03T13:50:19.600Z,5.28
2023-07-03T13:51:21.096Z,5.30
2023-07-03T13:52:22.571Z,4.97
2023-07-03T13:53:24.026Z,5.00
2023-07-03T13:54:25.513Z,5.30
2023-07-03T13:55:26.990Z,5.22
2023-07-03T13:56:28.466Z,5.00
2023-07-03T13:57:29.906Z,5.38
2023-07-03T13:58:31.365Z,5.15
2023-07-03T13:59:32.839Z,4.78
2023-07-03T14:00:34.318Z,4.85
2023-07-03T14:01:35.828Z,4.63
2023-07-03T14:02:47.828Z,5.93